Time;durP1;ratioP1;P1;durP2;ratioP2;P2;SDS_P1;SDS_P2;PMS_P1;PMS_P2;Temp;Humidity;BMP_temperature;BMP_pressure;BME280_temperature;BME280_humidity;BME280_pressure;Samples;Min_cycle;Max_cycle;Signal;HPM_P1;HPM_P2
2024/02/15 00:01:30;;;;;;;13.90;8.23;;;11.10;99.90;;;;;;5009147;28;20026;-47
2024/02/15 00:03:57;;;;;;;9.38;7.00;;;11.00;99.90;;;;;;5013507;28;20030;-48
2024/02/15 00:06:23;;;;;;;9.32;7.57;;;11.00;99.90;;;;;;4992801;28;20113;-48
2024/02/15 00:08:50;;;;;;;9.65;7.55;;;11.00;99.90;;;;;;4992282;28;20027;-47
2024/02/15 00:11:15;;;;;;;8.60;7.68;;;11.00;99.90;;;;;;4992337;28;20073;-46
2024/02/15 00:13:41;;;;;;;10.95;8.10;;;11.00;99.90;;;;;;4992282;28;20070;-52
2024/02/15 00:16:06;;;;;;;16.33;8.43;;;11.00;99.90;;;;;;4992351;28;20474;-52
2024/02/15 00:18:32;;;;;;;15.20;8.70;;;10.90;99.90;;;;;;5011582;28;20033;-47
2024/02/15 00:20:59;;;;;;;14.18;8.02;;;10.90;99.90;;;;;;5011818;28;20026;-45
2024/02/15 00:23:25;;;;;;;10.95;8.52;;;10.90;99.90;;;;;;5012337;28;20025;-54
2024/02/15 00:25:50;;;;;;;13.13;8.35;;;11.00;99.90;;;;;;5011467;28;20049;-47
2024/02/15 00:28:17;;;;;;;10.00;8.63;;;11.00;99.90;;;;;;5011449;28;20034;-42
2024/02/15 00:30:42;;;;;;;11.35;8.23;;;11.00;99.90;;;;;;5012350;28;20033;-47
2024/02/15 00:33:08;;;;;;;12.20;8.40;;;11.00;99.90;;;;;;5011745;28;20517;-47
2024/02/15 00:35:33;;;;;;;13.63;8.13;;;11.00;99.90;;;;;;5011402;28;20030;-52
2024/02/15 00:37:59;;;;;;;9.15;7.55;;;11.00;99.90;;;;;;5011328;28;20038;-48
2024/02/15 00:40:24;;;;;;;12.98;7.30;;;11.00;99.90;;;;;;5012184;28;20022;-46
2024/02/15 00:42:50;;;;;;;11.10;6.72;;;11.10;99.90;;;;;;5013147;28;20502;-50
2024/02/15 00:45:15;;;;;;;9.77;7.18;;;11.10;99.90;;;;;;5013926;28;20424;-51
2024/02/15 00:47:41;;;;;;;9.80;7.07;;;11.10;99.90;;;;;;5017130;28;20036;-49
2024/02/15 00:50:08;;;;;;;10.63;8.80;;;11.00;99.90;;;;;;5016769;28;20105;-47
2024/02/15 00:52:34;;;;;;;10.02;8.50;;;11.00;99.90;;;;;;5016580;28;20519;-46
2024/02/15 00:55:00;;;;;;;21.05;9.60;;;11.00;99.90;;;;;;5014459;28;20050;-46
2024/02/15 00:57:25;;;;;;;13.32;9.15;;;11.00;99.90;;;;;;5016494;28;20022;-47
2024/02/15 00:59:51;;;;;;;16.80;9.98;;;11.00;99.90;;;;;;5015605;28;20037;-46
2024/02/15 01:02:17;;;;;;;15.55;9.45;;;11.00;99.90;;;;;;5028261;23;20128;-46
2024/02/15 01:04:45;;;;;;;17.63;8.10;;;11.00;99.90;;;;;;5013100;28;20025;-45
2024/02/15 01:07:10;;;;;;;13.65;8.85;;;10.90;99.90;;;;;;5014323;28;20093;-43
2024/02/15 01:09:36;;;;;;;16.42;9.32;;;10.80;99.90;;;;;;5013698;28;20113;-46
2024/02/15 01:12:03;;;;;;;14.65;9.68;;;10.90;99.90;;;;;;5013546;28;20373;-45
2024/02/15 01:14:30;;;;;;;9.75;8.73;;;10.90;99.90;;;;;;5013567;28;20022;-44
2024/02/15 01:16:56;;;;;;;11.43;9.30;;;10.90;99.90;;;;;;5013321;28;20125;-46
2024/02/15 01:19:21;;;;;;;13.68;9.15;;;10.90;99.90;;;;;;5013369;28;20092;-47
2024/02/15 01:21:47;;;;;;;12.48;8.43;;;10.90;99.90;;;;;;4996005;28;20022;-46
2024/02/15 01:24:12;;;;;;;13.25;8.85;;;10.90;99.90;;;;;;5013252;28;20034;-48
2024/02/15 01:26:38;;;;;;;14.20;8.35;;;10.90;99.90;;;;;;5013177;28;20054;-46
2024/02/15 01:29:03;;;;;;;16.17;8.32;;;10.90;99.90;;;;;;5013432;28;20451;-49
2024/02/15 01:31:29;;;;;;;14.10;8.07;;;10.90;99.90;;;;;;5013291;28;20093;-45
2024/02/15 01:33:55;;;;;;;13.80;8.60;;;10.90;99.90;;;;;;5013297;28;20025;-45
2024/02/15 01:36:20;;;;;;;15.50;7.28;;;10.90;99.90;;;;;;5013118;28;20087;-49
2024/02/15 01:38:46;;;;;;;12.80;7.35;;;10.90;99.90;;;;;;5012931;28;20029;-50
2024/02/15 01:41:12;;;;;;;13.60;7.50;;;10.90;99.90;;;;;;5012785;28;20030;-47
2024/02/15 01:43:37;;;;;;;11.63;6.55;;;10.90;99.90;;;;;;5013094;28;20045;-48
2024/02/15 01:46:08;;;;;;;10.82;7.13;;;10.90;99.90;;;;;;5012994;28;20096;-45
2024/02/15 01:48:36;;;;;;;8.38;7.03;;;11.00;99.90;;;;;;5013201;28;20022;-46
2024/02/15 01:51:03;;;;;;;11.18;6.88;;;11.00;99.90;;;;;;5012760;28;20033;-48
2024/02/15 01:53:30;;;;;;;14.00;6.82;;;10.90;99.90;;;;;;5012878;28;20018;-46
2024/02/15 01:55:57;;;;;;;10.88;7.30;;;10.90;99.90;;;;;;5012622;28;20080;-45
2024/02/15 01:58:24;;;;;;;9.25;7.20;;;10.90;99.90;;;;;;5012868;28;20040;-48
2024/02/15 02:00:50;;;;;;;12.15;6.88;;;10.90;99.90;;;;;;5012637;28;20463;-44
2024/02/15 02:03:16;;;;;;;8.32;7.47;;;11.00;99.90;;;;;;5012642;28;20049;-47
2024/02/15 02:05:42;;;;;;;12.60;6.93;;;11.00;99.90;;;;;;5012575;28;20049;-45
2024/02/15 02:08:09;;;;;;;10.48;6.32;;;11.00;99.90;;;;;;5012539;28;20462;-44
2024/02/15 02:10:37;;;;;;;10.48;7.43;;;11.00;99.90;;;;;;5012407;28;20101;-45
2024/02/15 02:13:02;;;;;;;11.57;6.82;;;11.00;99.90;;;;;;5012414;28;20092;-45
2024/02/15 02:15:31;;;;;;;11.85;7.78;;;11.00;99.90;;;;;;5012220;28;20026;-47
2024/02/15 02:17:58;;;;;;;11.43;6.72;;;11.00;99.90;;;;;;5012438;28;20022;-46
2024/02/15 02:20:25;;;;;;;12.88;7.38;;;11.00;99.90;;;;;;5012580;28;20065;-46
2024/02/15 02:22:52;;;;;;;9.70;7.78;;;11.00;99.90;;;;;;5012445;28;20049;-45
2024/02/15 02:25:20;;;;;;;9.18;6.75;;;11.00;99.90;;;;;;5012825;28;20022;-48
2024/02/15 02:27:47;;;;;;;8.65;6.80;;;11.00;99.90;;;;;;5012973;28;20045;-48
2024/02/15 02:30:15;;;;;;;10.60;7.22;;;11.00;99.90;;;;;;5012964;28;20022;-47
2024/02/15 02:32:45;;;;;;;10.10;7.50;;;11.00;99.90;;;;;;4994801;28;20025;-45
2024/02/15 02:35:15;;;;;;;9.93;7.65;;;11.00;99.90;;;;;;5012047;28;20021;-46
2024/02/15 02:37:41;;;;;;;11.45;8.10;;;11.00;99.90;;;;;;5012250;28;20018;-49
2024/02/15 02:40:08;;;;;;;11.48;8.88;;;11.10;99.90;;;;;;5012130;28;20070;-50
2024/02/15 02:42:53;;;;;;;12.15;7.03;;;11.10;99.90;;;;;;5011755;28;20026;-46
2024/02/15 02:45:19;;;;;;;10.93;7.07;;;11.10;99.90;;;;;;5011901;28;20112;-46
2024/02/15 02:47:46;;;;;;;7.22;6.50;;;11.10;99.90;;;;;;5011903;28;20022;-45
2024/02/15 02:50:13;;;;;;;13.25;7.85;;;11.10;99.90;;;;;;5012044;28;20026;-47
2024/02/15 02:52:39;;;;;;;8.38;6.18;;;11.10;99.90;;;;;;5012253;28;20022;-48
2024/02/15 02:55:08;;;;;;;8.40;5.65;;;11.10;99.90;;;;;;5011993;28;20057;-46
2024/02/15 02:57:35;;;;;;;19.27;7.95;;;11.10;99.90;;;;;;5011919;28;20053;-44
2024/02/15 03:00:06;;;;;;;8.13;6.38;;;11.10;99.90;;;;;;5012355;28;20549;-47
2024/02/15 03:02:33;;;;;;;9.75;6.47;;;11.10;99.90;;;;;;5012338;28;20112;-46
2024/02/15 03:05:01;;;;;;;10.45;6.35;;;11.20;99.90;;;;;;5010225;28;20026;-45
2024/02/15 03:07:27;;;;;;;10.73;6.40;;;11.20;99.90;;;;;;5011718;28;20026;-47
2024/02/15 03:09:52;;;;;;;9.60;5.80;;;11.20;99.90;;;;;;5011577;28;20037;-47
2024/02/15 03:12:18;;;;;;;8.15;6.00;;;11.30;99.90;;;;;;5011619;28;20026;-45
2024/02/15 03:14:44;;;;;;;13.57;6.70;;;11.20;99.90;;;;;;5011568;28;20097;-48
2024/02/15 03:17:09;;;;;;;14.15;6.95;;;11.10;99.90;;;;;;5011691;28;20448;-50
2024/02/15 03:19:35;;;;;;;9.95;6.15;;;11.20;99.90;;;;;;5011797;28;20026;-45
2024/02/15 03:22:00;;;;;;;8.50;6.22;;;11.20;99.90;;;;;;5011250;28;20061;-47
2024/02/15 03:24:26;;;;;;;8.20;5.38;;;11.30;99.90;;;;;;5014260;28;20101;-52
2024/02/15 03:26:52;;;;;;;10.88;6.65;;;11.20;99.90;;;;;;5017846;28;20033;-43
2024/02/15 03:29:20;;;;;;;9.35;6.15;;;11.20;99.90;;;;;;5018238;28;20036;-45
2024/02/15 03:31:47;;;;;;;10.85;5.65;;;11.20;99.90;;;;;;5018092;28;20157;-46
2024/02/15 03:34:14;;;;;;;10.77;6.13;;;11.20;99.90;;;;;;5000671;28;20426;-44
2024/02/15 03:36:40;;;;;;;35.83;7.55;;;11.20;99.90;;;;;;5017532;28;20030;-45
2024/02/15 03:39:06;;;;;;;9.18;5.70;;;11.20;99.90;;;;;;5018249;28;20415;-45
2024/02/15 03:41:32;;;;;;;9.10;5.75;;;11.20;99.90;;;;;;5017981;28;20048;-43
2024/02/15 03:44:00;;;;;;;10.38;6.38;;;11.20;99.90;;;;;;5018347;28;20021;-44
2024/02/15 03:46:26;;;;;;;12.13;6.82;;;11.30;99.90;;;;;;5018034;28;20028;-44
2024/02/15 03:48:53;;;;;;;7.63;6.20;;;11.20;99.90;;;;;;5017927;28;20030;-46
2024/02/15 03:51:18;;;;;;;12.48;6.28;;;11.20;99.90;;;;;;5017824;28;20405;-45
2024/02/15 03:53:44;;;;;;;9.18;5.60;;;11.20;99.90;;;;;;5017709;28;20025;-46
2024/02/15 03:56:09;;;;;;;9.50;6.45;;;11.20;99.90;;;;;;5000013;28;20022;-44
2024/02/15 03:58:36;;;;;;;10.05;5.85;;;11.10;99.90;;;;;;5017636;28;20076;-49
2024/02/15 04:01:06;;;;;;;8.60;6.60;;;11.20;99.90;;;;;;5017652;28;20037;-44
2024/02/15 04:03:32;;;;;;;10.30;6.57;;;11.20;99.90;;;;;;5017685;28;20105;-49
2024/02/15 04:05:58;;;;;;;10.52;5.55;;;11.30;99.90;;;;;;5017467;28;20101;-46
2024/02/15 04:08:23;;;;;;;10.02;5.68;;;11.30;99.90;;;;;;5017719;28;20117;-45
2024/02/15 04:10:49;;;;;;;13.70;6.75;;;11.20;99.90;;;;;;5017798;28;20492;-46
2024/02/15 04:13:14;;;;;;;10.52;6.03;;;11.20;99.90;;;;;;5018007;28;20491;-44
2024/02/15 04:15:43;;;;;;;7.22;5.63;;;11.10;99.90;;;;;;5017615;28;20080;-46
2024/02/15 04:18:10;;;;;;;6.68;5.38;;;11.10;99.90;;;;;;5017498;28;20053;-45
2024/02/15 04:20:36;;;;;;;9.98;6.13;;;11.10;99.90;;;;;;5017642;28;20080;-46
2024/02/15 04:23:02;;;;;;;8.70;4.80;;;11.10;99.90;;;;;;5017424;28;20030;-46
2024/02/15 04:25:27;;;;;;;9.65;5.68;;;11.10;99.90;;;;;;5017323;28;20034;-44
2024/02/15 04:27:53;;;;;;;10.75;6.10;;;11.10;99.90;;;;;;5000046;28;20026;-44
2024/02/15 04:30:19;;;;;;;10.38;5.57;;;11.10;99.90;;;;;;5017523;28;20384;-45
2024/02/15 04:32:46;;;;;;;7.38;6.32;;;11.10;99.90;;;;;;5017440;28;20097;-43
2024/02/15 04:35:12;;;;;;;9.80;5.80;;;11.10;99.90;;;;;;5016408;28;20100;-44
2024/02/15 04:37:38;;;;;;;11.90;5.85;;;11.10;99.90;;;;;;5013650;28;20489;-44
2024/02/15 04:40:11;;;;;;;10.40;5.50;;;11.20;99.90;;;;;;5014383;28;20030;-46
2024/02/15 04:42:39;;;;;;;13.32;5.57;;;11.20;99.90;;;;;;5014107;28;20029;-46
2024/02/15 04:45:10;;;;;;;9.73;5.45;;;11.20;99.90;;;;;;5013625;28;20069;-50
2024/02/15 04:47:36;;;;;;;9.60;5.82;;;11.20;99.90;;;;;;5014314;28;20022;-43
2024/02/15 04:50:02;;;;;;;7.20;4.75;;;11.20;99.90;;;;;;5013988;28;20030;-41
2024/02/15 04:52:27;;;;;;;10.75;5.25;;;11.20;99.90;;;;;;5013998;28;20492;-47
2024/02/15 04:54:54;;;;;;;10.60;5.47;;;11.20;99.90;;;;;;5013781;28;20034;-48
2024/02/15 04:57:20;;;;;;;12.68;5.28;;;11.30;99.90;;;;;;5013981;28;20018;-45
2024/02/15 04:59:47;;;;;;;14.43;5.57;;;11.30;99.90;;;;;;5013893;28;20037;-48
2024/02/15 05:02:13;;;;;;;13.50;5.80;;;11.30;99.90;;;;;;5013663;28;20029;-45
2024/02/15 05:04:42;;;;;;;13.77;5.47;;;11.30;99.90;;;;;;5013562;28;20025;-45
2024/02/15 05:07:08;;;;;;;10.45;5.47;;;11.30;99.90;;;;;;5014759;28;20468;-49
2024/02/15 05:09:34;;;;;;;7.13;4.80;;;11.30;99.90;;;;;;5013633;28;20352;-47
2024/02/15 05:12:02;;;;;;;12.55;4.95;;;11.30;99.90;;;;;;5013827;28;20068;-44
2024/02/15 05:14:28;;;;;;;12.15;5.45;;;11.40;99.90;;;;;;5013822;28;20399;-45
2024/02/15 05:16:53;;;;;;;13.85;5.72;;;11.40;99.90;;;;;;5013582;28;20565;-44
2024/02/15 05:19:19;;;;;;;10.77;5.07;;;11.40;99.90;;;;;;5013346;28;20027;-44
2024/02/15 05:21:45;;;;;;;9.75;4.95;;;11.40;99.90;;;;;;5013564;28;20018;-46
2024/02/15 05:24:15;;;;;;;11.13;4.28;;;11.40;99.90;;;;;;5013571;28;20053;-45
2024/02/15 05:26:42;;;;;;;9.63;4.68;;;11.50;99.90;;;;;;5013494;28;20069;-47
2024/02/15 05:29:09;;;;;;;6.40;4.43;;;11.50;99.90;;;;;;5013290;28;20064;-50
2024/02/15 05:31:37;;;;;;;11.02;5.30;;;11.60;99.90;;;;;;5013393;28;20058;-44
2024/02/15 05:34:04;;;;;;;7.10;4.57;;;11.60;99.90;;;;;;5013465;28;20046;-46
2024/02/15 05:36:29;;;;;;;11.02;4.20;;;11.60;99.90;;;;;;5013105;28;20546;-47
2024/02/15 05:38:55;;;;;;;9.25;4.20;;;11.60;99.90;;;;;;5013188;28;20116;-46
2024/02/15 05:41:21;;;;;;;8.43;4.18;;;11.60;99.90;;;;;;5012647;28;20080;-44
2024/02/15 05:43:52;;;;;;;10.13;3.72;;;11.60;99.90;;;;;;5012979;28;20034;-47
2024/02/15 05:46:18;;;;;;;7.13;3.92;;;11.60;99.90;;;;;;5012913;28;20026;-44
2024/02/15 05:48:44;;;;;;;9.45;3.50;;;11.50;99.90;;;;;;5012611;28;20034;-44
2024/02/15 05:51:09;;;;;;;6.05;3.95;;;11.50;99.90;;;;;;5012831;28;20029;-49
2024/02/15 05:53:36;;;;;;;9.45;3.25;;;11.50;99.90;;;;;;5013144;28;20534;-49
2024/02/15 05:56:12;;;;;;;6.35;3.22;;;11.60;99.90;;;;;;5012917;28;20079;-51
2024/02/15 05:58:38;;;;;;;8.35;3.25;;;11.60;99.90;;;;;;5012852;28;20471;-53
2024/02/15 06:01:07;;;;;;;5.95;3.60;;;11.60;99.90;;;;;;5012541;28;20510;-48
2024/02/15 06:03:34;;;;;;;7.10;3.35;;;11.60;99.90;;;;;;5011840;28;20171;-47
2024/02/15 06:06:01;;;;;;;5.72;3.00;;;11.60;99.90;;;;;;5012913;28;20033;-48
2024/02/15 06:08:31;;;;;;;6.75;3.65;;;11.70;99.90;;;;;;4994957;28;20033;-47
2024/02/15 06:10:57;;;;;;;12.55;3.58;;;11.70;99.90;;;;;;5012503;28;20029;-46
2024/02/15 06:13:24;;;;;;;7.95;3.83;;;11.70;99.90;;;;;;5012436;28;20025;-47
2024/02/15 06:15:53;;;;;;;5.65;3.95;;;11.70;99.90;;;;;;5012330;28;20029;-44
2024/02/15 06:18:28;;;;;;;7.07;3.63;;;11.70;99.90;;;;;;5012775;28;20399;-46
2024/02/15 06:20:57;;;;;;;13.57;4.95;;;11.70;99.90;;;;;;5012511;28;20037;-44
2024/02/15 06:23:23;;;;;;;7.25;3.60;;;11.70;99.90;;;;;;4994679;28;20030;-46
2024/02/15 06:25:54;;;;;;;8.02;4.28;;;11.80;99.90;;;;;;5012254;28;20030;-47
2024/02/15 06:42:01;;;;;;;5.53;3.65;;;11.70;99.90;;;;;;5011745;28;20032;-46
2024/02/15 06:44:27;;;;;;;9.68;3.60;;;11.70;99.90;;;;;;5012043;28;20041;-50
2024/02/15 06:46:53;;;;;;;7.85;4.82;;;11.70;99.90;;;;;;5012016;28;20262;-44
2024/02/15 06:49:19;;;;;;;12.52;4.65;;;11.70;99.90;;;;;;4994660;28;20450;-48
2024/02/15 06:51:47;;;;;;;9.40;4.22;;;11.60;99.90;;;;;;5011965;28;20114;-45
2024/02/15 06:54:13;;;;;;;9.20;4.88;;;11.60;99.90;;;;;;5011909;28;20152;-46
2024/02/15 06:56:39;;;;;;;12.90;4.40;;;11.60;99.90;;;;;;5011812;28;20152;-44
2024/02/15 06:59:10;;;;;;;9.60;4.07;;;11.50;99.90;;;;;;5011348;28;20108;-46
2024/02/15 07:01:35;;;;;;;10.35;4.32;;;11.40;99.90;;;;;;5029779;23;20056;-42
2024/02/15 07:04:03;;;;;;;9.75;4.30;;;11.50;99.90;;;;;;5031531;28;20494;-42
2024/02/15 07:06:28;;;;;;;9.75;4.35;;;11.60;99.90;;;;;;5023314;28;20634;-45
2024/02/15 07:08:56;;;;;;;5.65;4.63;;;11.60;99.90;;;;;;5011635;28;20117;-43
2024/02/15 07:11:22;;;;;;;9.77;4.00;;;11.60;99.90;;;;;;5018689;28;20302;-46
2024/02/15 07:13:48;;;;;;;8.90;4.63;;;11.60;99.90;;;;;;5011507;28;20033;-43
2024/02/15 07:16:15;;;;;;;7.55;3.83;;;11.60;99.90;;;;;;5011533;28;20372;-43
2024/02/15 07:18:40;;;;;;;6.88;4.05;;;11.60;99.90;;;;;;5011455;28;20558;-46
2024/02/15 07:21:11;;;;;;;7.35;3.88;;;11.50;99.90;;;;;;5011581;28;20101;-41
2024/02/15 07:23:36;;;;;;;12.30;4.80;;;11.60;99.90;;;;;;5011639;28;20026;-42
2024/02/15 07:26:03;;;;;;;7.53;4.30;;;11.60;99.90;;;;;;5011400;28;20444;-42
2024/02/15 07:28:30;;;;;;;14.98;4.70;;;11.70;99.90;;;;;;5011447;28;20117;-47
2024/02/15 07:30:56;;;;;;;6.45;4.45;;;11.70;99.90;;;;;;5011634;28;20079;-43
2024/02/15 07:33:22;;;;;;;6.25;3.83;;;11.60;99.90;;;;;;5010897;28;20034;-42
2024/02/15 07:35:50;;;;;;;12.60;4.50;;;11.60;99.90;;;;;;5011293;28;20391;-41
2024/02/15 07:38:16;;;;;;;8.30;3.88;;;11.60;99.90;;;;;;5011437;28;20068;-41
2024/02/15 07:40:42;;;;;;;9.25;4.03;;;11.70;99.90;;;;;;5011308;28;20034;-43
2024/02/15 07:43:07;;;;;;;6.05;3.72;;;11.70;99.90;;;;;;5010782;28;20088;-51
2024/02/15 07:45:36;;;;;;;9.68;3.70;;;11.70;99.90;;;;;;5013262;28;20022;-45
2024/02/15 07:48:04;;;;;;;5.53;4.68;;;11.70;99.90;;;;;;5011637;28;20022;-45
2024/02/15 07:50:30;;;;;;;6.95;4.75;;;11.80;99.90;;;;;;5011373;28;20506;-44
2024/02/15 07:52:56;;;;;;;6.95;4.00;;;11.80;99.90;;;;;;5011126;28;20056;-44
2024/02/15 07:55:21;;;;;;;7.95;3.92;;;11.80;99.90;;;;;;5011352;28;20113;-42
2024/02/15 07:57:48;;;;;;;10.80;4.38;;;11.80;99.90;;;;;;5011050;28;20049;-41
2024/02/15 08:00:16;;;;;;;6.75;3.17;;;11.80;99.90;;;;;;5010761;28;20037;-43
2024/02/15 08:02:45;;;;;;;6.10;4.22;;;11.90;99.90;;;;;;5010625;28;20040;-45
2024/02/15 08:05:11;;;;;;;6.38;3.58;;;12.00;99.90;;;;;;4991267;28;20456;-42
2024/02/15 08:07:41;;;;;;;6.90;3.42;;;12.00;99.90;;;;;;4996601;28;20479;-43
2024/02/15 08:10:12;;;;;;;9.90;3.83;;;12.10;99.90;;;;;;5011440;28;20080;-44
2024/02/15 08:12:42;;;;;;;7.45;4.28;;;12.10;99.90;;;;;;5014781;28;20028;-48
2024/02/15 08:15:14;;;;;;;9.68;3.60;;;12.20;99.90;;;;;;5014605;28;20032;-41
2024/02/15 08:17:47;;;;;;;7.60;4.50;;;12.20;99.90;;;;;;5014467;28;20014;-41
2024/02/15 08:20:13;;;;;;;7.82;4.53;;;12.20;99.90;;;;;;5014080;28;20017;-44
2024/02/15 08:22:40;;;;;;;11.02;5.20;;;12.10;99.90;;;;;;5014555;28;20105;-42
2024/02/15 08:25:11;;;;;;;10.95;5.30;;;12.20;99.90;;;;;;5014363;28;20044;-40
2024/02/15 08:27:42;;;;;;;10.55;4.55;;;12.20;99.90;;;;;;5014165;28;20065;-41
2024/02/15 08:30:12;;;;;;;8.02;4.65;;;12.20;99.90;;;;;;5014537;28;20034;-44
2024/02/15 08:32:39;;;;;;;11.00;4.40;;;12.10;99.90;;;;;;5014142;28;20431;-41
2024/02/15 08:35:06;;;;;;;16.95;4.05;;;12.20;99.90;;;;;;5013317;28;20022;-48
2024/02/15 08:37:34;;;;;;;9.30;3.97;;;12.20;99.90;;;;;;5014250;28;20026;-45
2024/02/15 08:40:01;;;;;;;7.45;4.65;;;12.20;99.90;;;;;;5014534;28;20030;-44
2024/02/15 08:42:26;;;;;;;7.25;4.30;;;12.30;99.90;;;;;;5012910;28;20045;-42
2024/02/15 08:44:52;;;;;;;4.88;4.05;;;12.30;99.90;;;;;;5013843;28;20464;-46
2024/02/15 08:47:17;;;;;;;6.75;5.15;;;12.40;99.90;;;;;;4995519;28;20048;-54
2024/02/15 08:49:43;;;;;;;7.47;4.18;;;12.40;99.90;;;;;;5014783;28;20034;-41
2024/02/15 08:52:08;;;;;;;9.77;4.43;;;12.40;99.90;;;;;;5014114;28;20029;-42
2024/02/15 08:54:38;;;;;;;10.60;4.40;;;12.50;99.90;;;;;;5013244;28;20026;-43
2024/02/15 08:57:04;;;;;;;8.57;3.95;;;12.60;99.90;;;;;;5014034;28;20022;-41
2024/02/15 08:59:30;;;;;;;7.25;4.20;;;12.60;99.90;;;;;;5013656;28;20026;-44
2024/02/15 09:01:56;;;;;;;8.63;4.03;;;12.70;99.90;;;;;;5013587;28;20033;-43
2024/02/15 09:04:24;;;;;;;8.38;4.57;;;12.70;99.90;;;;;;5012304;28;20024;-43
2024/02/15 09:06:50;;;;;;;7.80;3.97;;;12.70;99.90;;;;;;5013599;28;20021;-42
2024/02/15 09:09:16;;;;;;;9.77;3.85;;;12.80;99.90;;;;;;5013655;28;20029;-43
2024/02/15 09:11:42;;;;;;;9.73;4.05;;;12.80;99.90;;;;;;5013368;28;20483;-47
2024/02/15 09:14:09;;;;;;;9.25;4.20;;;12.90;99.90;;;;;;5013503;28;20153;-43
2024/02/15 09:16:36;;;;;;;10.85;5.13;;;13.00;99.90;;;;;;5013926;28;20026;-43
2024/02/15 09:19:01;;;;;;;6.35;4.05;;;13.00;99.90;;;;;;5013554;28;20376;-43
2024/02/15 09:21:29;;;;;;;6.72;3.53;;;13.00;99.90;;;;;;5013007;28;20109;-42
2024/02/15 09:23:54;;;;;;;10.45;5.03;;;13.10;99.90;;;;;;5013068;28;20025;-42
2024/02/15 09:26:20;;;;;;;7.57;3.90;;;13.20;99.90;;;;;;5013444;28;20026;-42
2024/02/15 09:28:45;;;;;;;9.27;4.22;;;13.30;99.90;;;;;;5013878;28;20487;-42
2024/02/15 09:31:14;;;;;;;11.75;3.95;;;13.50;99.90;;;;;;5013721;28;20062;-47
2024/02/15 09:33:40;;;;;;;6.57;3.15;;;13.60;99.90;;;;;;5013342;28;20088;-42
2024/02/15 09:36:06;;;;;;;6.63;4.03;;;13.80;99.90;;;;;;5013179;28;20438;-42
2024/02/15 09:38:32;;;;;;;11.55;4.25;;;14.00;99.90;;;;;;5013296;28;20030;-42
2024/02/15 09:40:57;;;;;;;9.48;4.25;;;14.10;99.90;;;;;;5012642;28;20109;-41
2024/02/15 09:43:26;;;;;;;10.80;4.20;;;14.10;99.90;;;;;;5012984;28;20099;-41
2024/02/15 09:45:55;;;;;;;10.02;3.47;;;14.20;99.90;;;;;;5012653;28;20484;-44
2024/02/15 09:48:27;;;;;;;7.43;4.38;;;14.40;99.90;;;;;;5013235;28;20403;-41
2024/02/15 09:50:55;;;;;;;7.20;3.88;;;14.30;99.90;;;;;;5013131;28;20029;-42
2024/02/15 09:53:22;;;;;;;7.15;3.90;;;14.40;99.90;;;;;;5013061;28;20032;-42
2024/02/15 09:55:49;;;;;;;5.97;3.50;;;14.50;99.90;;;;;;5013022;28;20057;-43
2024/02/15 09:58:15;;;;;;;8.27;3.90;;;14.60;99.90;;;;;;5011695;28;20030;-42
2024/02/15 10:00:40;;;;;;;5.43;3.88;;;14.80;99.90;;;;;;5012950;28;20029;-43
2024/02/15 10:03:09;;;;;;;4.70;3.10;;;15.20;99.90;;;;;;5012745;28;20543;-42
2024/02/15 10:05:35;;;;;;;11.40;3.60;;;15.50;99.90;;;;;;5012642;28;20522;-45
2024/02/15 10:08:00;;;;;;;4.10;2.92;;;15.80;99.90;;;;;;5013104;28;20030;-42
2024/02/15 10:10:27;;;;;;;4.82;3.63;;;16.30;99.90;;;;;;5013445;28;20615;-44
2024/02/15 10:12:54;;;;;;;8.68;3.88;;;16.50;99.90;;;;;;5012735;28;20018;-41
2024/02/15 10:15:37;;;;;;;8.93;3.88;;;16.50;99.90;;;;;;5012139;28;20088;-46
2024/02/15 10:18:07;;;;;;;8.13;4.65;;;16.30;99.90;;;;;;5011997;28;20582;-42
2024/02/15 10:20:34;;;;;;;10.52;3.70;;;16.10;99.90;;;;;;5012531;28;20029;-43
2024/02/15 10:22:59;;;;;;;7.78;4.03;;;16.00;99.90;;;;;;5012195;28;20045;-42
2024/02/15 10:25:27;;;;;;;4.82;3.58;;;16.10;99.90;;;;;;5012159;28;20496;-44
2024/02/15 10:28:01;;;;;;;8.13;4.20;;;15.60;99.90;;;;;;5012209;28;20427;-39
2024/02/15 10:30:29;;;;;;;9.93;3.65;;;16.50;99.90;;;;;;5012482;28;20037;-42
2024/02/15 10:32:56;;;;;;;9.43;3.63;;;16.60;99.90;;;;;;5011932;28;20025;-43
2024/02/15 10:35:22;;;;;;;5.85;3.90;;;16.80;99.90;;;;;;5011023;28;20546;-45
2024/02/15 10:37:50;;;;;;;6.60;3.80;;;17.00;99.90;;;;;;5012251;28;20041;-45
2024/02/15 10:40:18;;;;;;;8.23;4.15;;;17.00;99.90;;;;;;5012010;28;20025;-43
2024/02/15 10:42:50;;;;;;;7.65;3.80;;;17.10;99.90;;;;;;5011889;28;20018;-42
2024/02/15 10:45:17;;;;;;;8.48;4.10;;;17.00;99.90;;;;;;5011713;28;20506;-41
2024/02/15 10:47:45;;;;;;;4.22;3.25;;;16.90;99.90;;;;;;5011582;28;20108;-42
2024/02/15 10:50:10;;;;;;;9.57;4.55;;;16.70;99.90;;;;;;5011397;28;20022;-44
2024/02/15 10:52:41;;;;;;;7.43;4.10;;;16.70;99.90;;;;;;5011715;28;20292;-42
2024/02/15 10:55:13;;;;;;;7.22;4.07;;;16.60;99.90;;;;;;5011626;28;20041;-41
2024/02/15 10:57:44;;;;;;;10.98;4.00;;;16.50;99.90;;;;;;5011600;28;20022;-42
2024/02/15 11:00:20;;;;;;;9.48;3.63;;;16.30;99.90;;;;;;5011824;28;20026;-41
2024/02/15 11:03:02;;;;;;;9.20;4.47;;;16.10;99.90;;;;;;5011591;28;20077;-41
2024/02/15 11:05:31;;;;;;;6.65;4.03;;;16.00;99.90;;;;;;5011319;28;20072;-42
2024/02/15 11:07:57;;;;;;;6.03;3.83;;;15.80;99.90;;;;;;5011585;28;20022;-44
2024/02/15 11:10:24;;;;;;;7.15;4.50;;;15.70;99.90;;;;;;5011572;28;20029;-44
2024/02/15 11:12:51;;;;;;;12.48;4.53;;;15.60;99.90;;;;;;5011476;28;20486;-42
2024/02/15 11:15:49;;;;;;;6.65;3.90;;;15.70;99.90;;;;;;5011559;28;20044;-44
2024/02/15 11:18:51;;;;;;;6.03;3.75;;;15.90;99.90;;;;;;4999680;28;20045;-42
2024/02/15 11:21:18;;;;;;;9.75;3.85;;;16.10;99.90;;;;;;5011472;28;20077;-41
2024/02/15 11:23:44;;;;;;;6.10;3.78;;;16.00;99.90;;;;;;5011521;28;20029;-47
2024/02/15 11:26:48;;;;;;;10.52;4.32;;;16.00;99.90;;;;;;5011450;28;20056;-46
2024/02/15 11:29:54;;;;;;;7.63;4.03;;;16.00;99.90;;;;;;5011464;28;20116;-44
2024/02/15 11:32:39;;;;;;;4.85;3.83;;;15.90;99.90;;;;;;5010666;28;20079;-41
2024/02/15 11:35:10;;;;;;;8.40;3.65;;;15.80;99.90;;;;;;5011400;28;20018;-41
2024/02/15 11:40:43;;;;;;;11.85;4.47;;;15.80;99.90;;;;;;5011552;28;20125;-42
2024/02/15 11:43:11;;;;;;;7.50;3.23;;;15.60;99.90;;;;;;5004547;28;20381;-43
2024/02/15 11:45:43;;;;;;;7.15;3.55;;;15.70;99.90;;;;;;5012520;28;20026;-44
2024/02/15 11:48:11;;;;;;;8.15;3.40;;;15.70;99.90;;;;;;5015286;28;20394;-43
2024/02/15 11:50:37;;;;;;;8.52;3.03;;;15.80;99.90;;;;;;5015869;28;20080;-41
2024/02/15 11:53:11;;;;;;;8.95;2.90;;;15.80;99.90;;;;;;5013780;28;20487;-43
2024/02/15 11:55:38;;;;;;;8.32;2.85;;;15.90;99.90;;;;;;5013535;28;20057;-44
2024/02/15 11:58:10;;;;;;;6.85;2.67;;;15.90;99.90;;;;;;5014933;28;20045;-42
2024/02/15 12:19:56;;;;;;;;;;;16.00;99.90;;;;;;5015346;28;20117;-42
2024/02/15 12:22:31;;;;;;;6.43;1.75;;;16.00;99.90;;;;;;5014696;28;20347;-44
2024/02/15 12:25:05;;;;;;;3.78;1.80;;;16.00;99.90;;;;;;5013594;28;20087;-43
2024/02/15 12:27:31;;;;;;;4.78;1.98;;;16.10;99.90;;;;;;5014465;28;20048;-43
2024/02/15 12:29:58;;;;;;;9.63;5.93;;;16.10;99.90;;;;;;5014498;28;20034;-42
2024/02/15 12:32:27;;;;;;;5.15;2.75;;;16.00;99.90;;;;;;5014274;28;20041;-46
2024/02/15 12:35:08;;;;;;;3.20;1.90;;;16.10;99.90;;;;;;5013707;28;20030;-46
2024/02/15 12:37:34;;;;;;;5.38;1.92;;;16.00;99.90;;;;;;5021658;28;20033;-55
2024/02/15 12:40:10;;;;;;;6.60;2.58;;;16.00;99.90;;;;;;5021641;28;20034;-43
2024/02/15 12:42:39;;;;;;;7.00;2.08;;;15.90;99.90;;;;;;5021336;28;20018;-47
2024/02/15 12:45:07;;;;;;;5.13;2.40;;;16.00;99.90;;;;;;5021959;28;20029;-48
2024/02/15 12:47:33;;;;;;;4.65;2.05;;;16.00;99.90;;;;;;5020987;28;20045;-43
2024/02/15 12:50:12;;;;;;;4.53;2.03;;;16.00;99.90;;;;;;5014609;28;20116;-47
2024/02/15 12:52:38;;;;;;;2.17;1.77;;;16.00;99.90;;;;;;5014069;28;20026;-43
2024/02/15 12:55:09;;;;;;;4.65;2.25;;;16.00;99.90;;;;;;5013356;28;20037;-46
2024/02/15 12:57:35;;;;;;;4.03;1.85;;;16.10;99.90;;;;;;5012677;28;20406;-46
2024/02/15 13:00:10;;;;;;;4.97;2.10;;;16.20;99.90;;;;;;5012571;28;20033;-47
2024/02/15 13:02:38;;;;;;;10.00;2.25;;;16.30;99.90;;;;;;5011480;28;20514;-44
2024/02/15 13:05:11;;;;;;;2.40;1.95;;;16.20;99.90;;;;;;4995760;28;20061;-47
2024/02/15 13:07:38;;;;;;;3.50;1.98;;;16.20;99.90;;;;;;4995902;28;20038;-47
2024/02/15 13:10:06;;;;;;;5.78;2.08;;;16.20;99.90;;;;;;5013501;28;20042;-50
2024/02/15 13:12:34;;;;;;;5.05;2.35;;;16.10;99.90;;;;;;5012673;28;20026;-49
2024/02/15 13:15:03;;;;;;;8.05;2.72;;;16.10;99.90;;;;;;5012250;28;20029;-46
2024/02/15 13:17:29;;;;;;;3.72;2.00;;;16.00;99.90;;;;;;5012897;28;20017;-46
2024/02/15 13:20:02;;;;;;;9.70;2.08;;;16.10;99.90;;;;;;5013863;28;20022;-47
2024/02/15 13:22:28;;;;;;;5.28;1.90;;;16.10;99.90;;;;;;5013683;28;20340;-47